createdAt,value
2023-01-13T00:00:45.803Z,94.68
2023-01-13T00:01:48.963Z,94.85
2023-01-13T00:02:52.044Z,94.98
2023-01-13T00:03:55.641Z,94.42
2023-01-13T00:04:58.666Z,94.52
2023-01-13T00:06:02.032Z,94.10
2023-01-13T00:07:05.110Z,93.69
2023-01-13T00:08:08.144Z,93.72
2023-01-13T00:09:11.356Z,93.35
2023-01-13T00:10:17.989Z,93.24
2023-01-13T00:11:21.713Z,93.03
2023-01-13T00:12:24.866Z,93.17
2023-01-13T00:13:27.938Z,93.37
2023-01-13T00:14:34.470Z,93.12
2023-01-13T00:15:37.571Z,93.52
2023-01-13T00:16:44.082Z,93.34
2023-01-13T00:17:49.097Z,93.68
2023-01-13T00:18:55.145Z,93.86
2023-01-13T00:19:58.183Z,94.50
2023-01-13T00:21:09.027Z,94.63
2023-01-13T00:22:12.028Z,94.82
2023-01-13T00:23:14.986Z,94.54
2023-01-13T00:24:18.066Z,94.77
2023-01-13T00:25:21.055Z,93.56
2023-01-13T00:26:27.857Z,93.90
2023-01-13T00:27:31.928Z,93.05
2023-01-13T00:28:38.878Z,92.48
2023-01-13T00:29:45.801Z,92.52
2023-01-13T00:30:48.950Z,93.23
2023-01-13T00:31:52.251Z,93.58
2023-01-13T00:32:58.799Z,93.76
2023-01-13T00:34:02.090Z,93.53
2023-01-13T00:35:05.629Z,92.83
2023-01-13T00:36:11.132Z,92.39
2023-01-13T00:37:14.912Z,91.94
2023-01-13T00:38:17.952Z,92.84
2023-01-13T00:39:21.260Z,93.56
2023-01-13T00:40:24.347Z,93.68
2023-01-13T00:41:50.576Z,93.99
2023-01-13T00:43:26.390Z,94.11
2023-01-13T00:44:29.752Z,94.25
2023-01-13T00:45:32.838Z,94.29
2023-01-13T00:46:35.951Z,94.34
2023-01-13T00:47:39.161Z,93.50
2023-01-13T00:48:42.713Z,93.37
2023-01-13T00:49:46.277Z,93.51
2023-01-13T00:51:03.289Z,94.23
2023-01-13T00:52:06.935Z,94.35
2023-01-13T00:53:10.085Z,94.06
2023-01-13T00:54:13.207Z,93.57
2023-01-13T00:55:16.435Z,94.06
2023-01-13T00:56:39.055Z,93.65
2023-01-13T00:57:43.456Z,93.78
2023-01-13T00:58:47.703Z,93.56
2023-01-13T00:59:51.332Z,93.41
2023-01-13T01:00:54.405Z,92.97
2023-01-13T01:01:57.640Z,93.12
2023-01-13T01:03:01.026Z,93.24
2023-01-13T01:04:04.243Z,93.50
2023-01-13T01:05:07.667Z,93.15
2023-01-13T01:06:16.761Z,92.97
2023-01-13T01:07:19.800Z,93.10
2023-01-13T01:08:22.956Z,93.00
2023-01-13T01:09:32.921Z,92.74
2023-01-13T01:10:36.031Z,91.99
2023-01-13T01:11:39.146Z,92.40
2023-01-13T01:12:42.307Z,92.75
2023-01-13T01:13:46.107Z,92.96
2023-01-13T01:14:49.143Z,92.20
2023-01-13T01:15:53.543Z,91.23
2023-01-13T01:16:56.662Z,91.42
2023-01-13T01:17:59.744Z,92.18
2023-01-13T01:19:03.792Z,92.35
2023-01-13T01:20:07.487Z,92.18
2023-01-13T01:21:14.398Z,91.84
2023-01-13T01:22:17.862Z,91.88
2023-01-13T01:23:21.078Z,92.28
2023-01-13T01:24:24.182Z,92.56
2023-01-13T01:25:27.360Z,92.41
2023-01-13T01:26:31.804Z,92.20
2023-01-13T01:27:35.032Z,92.11
2023-01-13T01:28:38.245Z,91.86
2023-01-13T01:29:41.245Z,92.17
2023-01-13T01:30:44.331Z,92.94
2023-01-13T01:31:47.380Z,93.16
2023-01-13T01:32:50.552Z,93.57
2023-01-13T01:33:55.274Z,93.66
2023-01-13T01:34:58.282Z,93.47
2023-01-13T01:36:02.470Z,92.89
2023-01-13T01:37:05.944Z,93.24
2023-01-13T01:38:09.178Z,93.39
2023-01-13T01:39:12.228Z,93.15
2023-01-13T01:40:15.425Z,93.79
2023-01-13T01:41:24.916Z,93.95
2023-01-13T01:42:47.509Z,93.13
2023-01-13T01:44:08.542Z,92.16
2023-01-13T01:45:20.017Z,93.58
2023-01-13T01:46:23.263Z,93.74
2023-01-13T01:47:28.575Z,93.36
2023-01-13T01:48:41.358Z,93.93
2023-01-13T01:49:46.503Z,93.84
2023-01-13T01:50:49.658Z,93.89
2023-01-13T01:51:58.588Z,94.04
2023-01-13T01:53:13.153Z,94.15
2023-01-13T01:54:22.889Z,93.69
2023-01-13T01:55:37.362Z,94.28
2023-01-13T01:56:45.052Z,94.09
2023-01-13T01:58:00.223Z,93.54
2023-01-13T01:59:07.094Z,93.48
2023-01-13T02:00:10.893Z,94.64
2023-01-13T02:01:14.967Z,95.33
2023-01-13T02:02:18.887Z,95.44
2023-01-13T02:03:22.161Z,95.52
2023-01-13T02:04:31.034Z,95.13
2023-01-13T02:05:36.032Z,94.99
2023-01-13T02:06:40.044Z,95.71
2023-01-13T02:07:46.944Z,95.56
2023-01-13T02:08:50.152Z,94.44
2023-01-13T02:09:56.018Z,94.28
2023-01-13T02:10:59.063Z,94.63
2023-01-13T02:12:24.883Z,95.64
2023-01-13T02:13:28.191Z,96.45
2023-01-13T02:14:35.022Z,95.02
2023-01-13T02:15:52.965Z,95.14
2023-01-13T02:17:08.430Z,96.36
2023-01-13T02:18:33.233Z,96.71
2023-01-13T02:19:51.453Z,95.46
2023-01-13T02:21:33.282Z,96.25
2023-01-13T02:22:54.779Z,96.16
2023-01-13T02:24:35.060Z,95.01
2023-01-13T02:26:03.476Z,95.03
2023-01-13T02:27:58.877Z,96.33
2023-01-13T02:29:53.603Z,95.89
2023-01-13T02:31:33.844Z,95.60
2023-01-13T02:32:51.724Z,95.91
2023-01-13T02:34:20.531Z,95.81
2023-01-13T02:35:48.043Z,95.61
2023-01-13T02:37:04.804Z,96.52
2023-01-13T02:38:12.131Z,97.12
2023-01-13T02:39:24.484Z,96.48
2023-01-13T02:40:42.327Z,96.06
2023-01-13T02:42:18.152Z,96.22
2023-01-13T02:43:48.268Z,97.34
2023-01-13T02:45:11.062Z,98.35
2023-01-13T02:46:49.671Z,98.46
2023-01-13T02:47:56.215Z,98.32
2023-01-13T02:49:06.749Z,97.84
2023-01-13T02:50:17.934Z,98.63
2023-01-13T02:51:24.706Z,98.48
2023-01-13T02:52:38.843Z,98.41
2023-01-13T02:53:56.797Z,98.33
2023-01-13T02:55:06.699Z,97.47
2023-01-13T02:56:12.673Z,97.69
2023-01-13T02:57:19.022Z,98.13
2023-01-13T02:58:27.231Z,98.81
2023-01-13T02:59:31.805Z,98.06
2023-01-13T03:00:36.966Z,98.23
2023-01-13T03:01:40.961Z,98.19
2023-01-13T03:02:44.447Z,98.29
2023-01-13T03:03:47.683Z,98.37
2023-01-13T03:04:59.066Z,98.15
2023-01-13T03:06:17.272Z,98.24
2023-01-13T03:07:39.140Z,98.71
2023-01-13T03:09:07.694Z,98.17
2023-01-13T03:10:35.176Z,97.64
2023-01-13T03:12:03.601Z,97.37
2023-01-13T03:13:29.630Z,97.32
2023-01-13T03:15:09.766Z,97.58
2023-01-13T03:16:38.764Z,98.11
2023-01-13T03:17:56.119Z,98.17
2023-01-13T03:19:25.949Z,98.23
2023-01-13T03:20:37.357Z,97.67
2023-01-13T03:21:52.316Z,98.46
2023-01-13T03:23:17.907Z,98.37
2023-01-13T03:24:28.967Z,97.93
2023-01-13T03:25:37.263Z,97.43
2023-01-13T03:26:49.946Z,97.84
2023-01-13T03:27:56.128Z,98.12
2023-01-13T03:29:09.469Z,98.07
2023-01-13T03:30:33.971Z,97.96
2023-01-13T03:31:47.228Z,97.50
2023-01-13T03:32:55.812Z,96.87
2023-01-13T03:34:05.115Z,96.55
2023-01-13T03:35:37.458Z,96.49
2023-01-13T03:36:43.430Z,96.35
2023-01-13T03:37:51.981Z,95.95
2023-01-13T03:39:03.160Z,95.79
2023-01-13T03:40:15.756Z,96.14
2023-01-13T03:41:43.740Z,96.19
2023-01-13T03:43:12.233Z,96.28
2023-01-13T03:44:24.905Z,96.37
2023-01-13T03:45:29.669Z,96.55
2023-01-13T03:46:47.476Z,96.72
2023-01-13T03:47:57.775Z,95.99
2023-01-13T03:49:07.546Z,95.84
2023-01-13T03:50:27.941Z,96.25
2023-01-13T03:51:34.193Z,96.76
2023-01-13T03:52:42.164Z,96.54
2023-01-13T03:53:53.181Z,96.24
2023-01-13T03:55:03.603Z,96.01
2023-01-13T03:56:37.548Z,95.98
2023-01-13T03:57:47.410Z,96.37
2023-01-13T03:58:54.331Z,96.59
2023-01-13T04:00:03.205Z,97.12
2023-01-13T04:01:19.429Z,98.11
2023-01-13T04:02:38.311Z,98.06
2023-01-13T04:03:51.338Z,98.68
2023-01-13T04:05:06.848Z,98.46
2023-01-13T04:06:32.366Z,98.24
2023-01-13T04:08:04.509Z,98.14
2023-01-13T04:09:20.686Z,97.38
2023-01-13T04:10:48.570Z,97.77
2023-01-13T04:12:07.765Z,97.93
2023-01-13T04:13:18.440Z,98.07
2023-01-13T04:14:24.996Z,97.36
2023-01-13T04:15:31.967Z,97.12
2023-01-13T04:16:37.610Z,97.49
2023-01-13T04:17:41.026Z,97.44
2023-01-13T04:18:44.363Z,97.73
2023-01-13T04:19:47.640Z,98.59
2023-01-13T04:20:53.439Z,98.27
2023-01-13T04:21:56.509Z,97.90
2023-01-13T04:22:59.818Z,98.25
2023-01-13T04:24:02.768Z,98.23
2023-01-13T04:25:06.292Z,99.15
2023-01-13T04:26:09.337Z,98.79
2023-01-13T04:27:12.589Z,97.80
2023-01-13T04:28:16.295Z,97.91
2023-01-13T04:29:19.286Z,98.78
2023-01-13T04:30:25.960Z,98.36
2023-01-13T04:31:29.058Z,97.94
2023-01-13T04:32:32.051Z,97.42
2023-01-13T04:33:35.108Z,97.54
2023-01-13T04:34:38.381Z,97.75
2023-01-13T04:35:41.902Z,98.41
2023-01-13T04:36:45.396Z,98.45
2023-01-13T04:37:48.792Z,98.08
2023-01-13T04:38:51.849Z,98.25
2023-01-13T04:39:54.805Z,98.17
2023-01-13T04:40:57.842Z,97.50
2023-01-13T04:42:02.683Z,98.28
2023-01-13T04:43:06.289Z,99.18
2023-01-13T04:44:12.797Z,99.39
2023-01-13T04:45:17.019Z,99.05
2023-01-13T04:46:20.261Z,98.76
2023-01-13T04:47:23.995Z,98.64
2023-01-13T04:48:28.367Z,97.78
2023-01-13T04:49:32.053Z,98.21
2023-01-13T04:50:35.695Z,99.67
2023-01-13T04:51:42.078Z,99.57
2023-01-13T04:52:46.663Z,99.30
2023-01-13T04:53:51.585Z,98.85
2023-01-13T04:54:54.541Z,98.95
2023-01-13T04:55:57.626Z,98.46
2023-01-13T04:57:00.572Z,98.46
2023-01-13T04:58:05.437Z,98.14
2023-01-13T04:59:10.686Z,98.14
2023-01-13T05:00:16.392Z,98.74
2023-01-13T05:01:19.617Z,98.97
2023-01-13T05:02:22.762Z,98.96
2023-01-13T05:03:27.154Z,99.00
2023-01-13T05:04:30.192Z,98.95
2023-01-13T05:05:33.484Z,98.53
2023-01-13T05:06:36.414Z,97.93
2023-01-13T05:07:39.828Z,97.65
2023-01-13T05:08:43.421Z,97.77
2023-01-13T05:09:46.321Z,96.96
2023-01-13T05:10:49.246Z,97.22
2023-01-13T05:12:11.428Z,97.83
2023-01-13T05:13:33.037Z,98.06
2023-01-13T05:14:54.983Z,98.71
2023-01-13T05:16:27.725Z,98.48
2023-01-13T05:17:32.102Z,97.88
2023-01-13T05:18:39.696Z,97.15
2023-01-13T05:19:42.622Z,97.84
2023-01-13T05:20:46.163Z,97.48
2023-01-13T05:22:07.616Z,97.59
2023-01-13T05:23:28.894Z,98.80
2023-01-13T05:24:50.671Z,98.38
2023-01-13T05:25:53.606Z,98.12
2023-01-13T05:26:56.438Z,98.09
2023-01-13T05:28:00.180Z,97.50
2023-01-13T05:29:03.216Z,97.39
2023-01-13T05:30:07.305Z,97.64
2023-01-13T05:31:12.334Z,96.70
2023-01-13T05:32:15.651Z,97.19
2023-01-13T05:33:21.033Z,97.48
2023-01-13T05:34:24.018Z,97.86
2023-01-13T05:35:30.925Z,97.94
2023-01-13T05:36:34.008Z,97.81
2023-01-13T05:37:37.264Z,97.39
2023-01-13T05:38:40.331Z,97.70
2023-01-13T05:40:02.450Z,97.76
2023-01-13T05:41:24.476Z,98.00
2023-01-13T05:42:46.133Z,98.07
2023-01-13T05:43:49.309Z,98.01
2023-01-13T05:44:52.412Z,97.93
2023-01-13T05:46:02.394Z,97.88
2023-01-13T05:48:14.139Z,98.06
2023-01-13T05:49:17.081Z,98.05
2023-01-13T05:50:19.957Z,98.32
2023-01-13T05:51:26.524Z,98.33
2023-01-13T05:52:32.855Z,97.36
2023-01-13T05:53:37.632Z,97.14
2023-01-13T05:54:41.445Z,97.41
2023-01-13T05:55:45.425Z,97.68
2023-01-13T05:56:48.596Z,97.68
2023-01-13T05:57:51.581Z,97.75
2023-01-13T05:58:57.524Z,97.25
2023-01-13T06:00:00.974Z,96.55
2023-01-13T06:01:07.252Z,96.65
2023-01-13T06:02:10.287Z,96.99
2023-01-13T06:03:13.803Z,96.56
2023-01-13T06:04:16.785Z,96.61
2023-01-13T06:05:19.681Z,97.06
2023-01-13T06:06:22.614Z,97.45
2023-01-13T06:07:25.461Z,97.31
2023-01-13T06:08:29.208Z,97.17
2023-01-13T06:09:32.264Z,97.32
2023-01-13T06:10:36.414Z,97.41
2023-01-13T06:11:39.277Z,98.00
2023-01-13T06:12:42.234Z,98.02
2023-01-13T06:13:45.005Z,96.86
2023-01-13T06:14:47.919Z,96.16
2023-01-13T06:15:51.154Z,96.31
2023-01-13T06:16:54.050Z,96.78
2023-01-13T06:17:57.439Z,96.40
2023-01-13T06:19:01.990Z,96.91
2023-01-13T06:20:05.252Z,96.72
2023-01-13T06:21:08.180Z,96.50
2023-01-13T06:22:19.015Z,96.74
2023-01-13T06:23:21.939Z,96.33
2023-01-13T06:24:25.138Z,95.86
2023-01-13T06:25:56.848Z,96.70
2023-01-13T06:26:59.779Z,97.74
2023-01-13T06:28:03.314Z,97.63
2023-01-13T06:29:06.811Z,98.11
2023-01-13T06:30:10.302Z,98.31
2023-01-13T06:31:19.520Z,98.30
2023-01-13T06:32:29.729Z,98.19
2023-01-13T06:33:37.280Z,98.27
2023-01-13T06:34:43.150Z,98.61
2023-01-13T06:35:54.705Z,98.03
2023-01-13T06:38:11.153Z,98.93
2023-01-13T06:39:20.579Z,99.27
2023-01-13T06:40:24.331Z,98.98
2023-01-13T06:41:48.140Z,97.67
2023-01-13T06:43:16.121Z,97.56
2023-01-13T06:44:21.112Z,98.93
2023-01-13T06:45:28.854Z,99.74
2023-01-13T06:46:32.073Z,99.67
2023-01-13T06:47:35.098Z,99.41
2023-01-13T06:48:39.315Z,100.00
2023-01-13T06:49:42.417Z,100.00
2023-01-13T06:50:45.564Z,100.00
2023-01-13T06:51:48.928Z,99.25
2023-01-13T06:52:52.301Z,98.14
2023-01-13T06:53:55.150Z,97.63
2023-01-13T06:54:58.577Z,98.07
2023-01-13T06:56:02.117Z,98.06
2023-01-13T06:57:05.893Z,97.93
2023-01-13T06:58:09.132Z,97.65
2023-01-13T06:59:12.179Z,97.27
2023-01-13T07:00:16.069Z,97.62
2023-01-13T07:01:19.410Z,97.98
2023-01-13T07:02:22.760Z,97.51
2023-01-13T07:03:26.200Z,97.94
2023-01-13T07:04:29.420Z,98.57
2023-01-13T07:05:32.729Z,97.54
2023-01-13T07:06:35.739Z,97.24
2023-01-13T07:07:39.188Z,97.19
2023-01-13T07:08:42.326Z,98.20
2023-01-13T07:09:45.503Z,98.39
2023-01-13T07:10:48.619Z,98.50
2023-01-13T07:11:53.076Z,98.04
2023-01-13T07:13:14.801Z,99.39
2023-01-13T07:14:36.238Z,99.83
2023-01-13T07:15:39.094Z,100.00
2023-01-13T07:16:44.812Z,100.00
2023-01-13T07:17:48.079Z,99.16
2023-01-13T07:18:54.318Z,98.62
2023-01-13T07:19:58.292Z,98.75
2023-01-13T07:21:04.116Z,99.80
2023-01-13T07:22:07.120Z,100.00
2023-01-13T07:23:10.080Z,100.00
2023-01-13T07:24:13.058Z,100.00
2023-01-13T07:25:16.195Z,100.00
2023-01-13T07:26:19.289Z,100.00
2023-01-13T07:27:22.532Z,99.96
2023-01-13T07:28:30.746Z,100.00
2023-01-13T07:29:34.388Z,100.00
2023-01-13T07:30:38.908Z,100.00
2023-01-13T07:31:42.175Z,100.00
2023-01-13T07:32:45.984Z,100.00
2023-01-13T07:33:49.007Z,99.61
2023-01-13T07:34:52.170Z,99.36
2023-01-13T07:36:00.467Z,100.00
2023-01-13T07:37:03.344Z,100.00
2023-01-13T07:38:06.452Z,99.97
2023-01-13T07:39:09.497Z,99.06
2023-01-13T07:40:13.197Z,99.16
2023-01-13T07:41:34.786Z,99.24
2023-01-13T07:42:58.153Z,98.58
2023-01-13T07:44:05.175Z,97.57
2023-01-13T07:45:10.884Z,97.27
2023-01-13T07:46:18.981Z,96.27
2023-01-13T07:47:23.684Z,96.25
2023-01-13T07:48:30.210Z,96.63
2023-01-13T07:49:33.399Z,96.69
2023-01-13T07:50:37.022Z,96.12
2023-01-13T07:51:40.527Z,95.58
2023-01-13T07:52:43.380Z,95.59
2023-01-13T07:53:46.346Z,95.05
2023-01-13T07:54:50.353Z,95.28
2023-01-13T07:55:57.513Z,94.96
2023-01-13T07:57:00.778Z,94.18
2023-01-13T07:58:03.875Z,95.01
2023-01-13T07:59:06.952Z,94.80
2023-01-13T08:00:12.739Z,94.57
2023-01-13T08:01:17.013Z,93.91
2023-01-13T08:02:20.705Z,94.74
2023-01-13T08:03:24.556Z,94.12
2023-01-13T08:04:27.667Z,93.53
2023-01-13T08:05:30.838Z,94.34
2023-01-13T08:06:34.315Z,94.30
2023-01-13T08:07:38.090Z,93.55
2023-01-13T08:08:41.495Z,93.55
2023-01-13T08:09:44.939Z,93.46
2023-01-13T08:10:48.537Z,94.05
2023-01-13T08:12:14.872Z,92.81
2023-01-13T08:13:21.225Z,92.30
2023-01-13T08:14:24.084Z,91.63
2023-01-13T08:15:26.928Z,91.95
2023-01-13T08:16:29.925Z,92.31
2023-01-13T08:17:33.156Z,92.19
2023-01-13T08:18:37.926Z,91.48
2023-01-13T08:19:40.749Z,91.62
2023-01-13T08:20:43.983Z,91.03
2023-01-13T08:21:46.926Z,91.13
2023-01-13T08:22:49.833Z,90.94
2023-01-13T08:23:52.800Z,90.56
2023-01-13T08:24:56.554Z,90.92
2023-01-13T08:26:04.625Z,90.79
2023-01-13T08:27:10.907Z,90.69
2023-01-13T08:28:14.905Z,90.62
2023-01-13T08:29:18.320Z,90.78
2023-01-13T08:30:21.723Z,90.45
2023-01-13T08:31:24.980Z,90.28
2023-01-13T08:32:28.008Z,89.66
2023-01-13T08:33:31.878Z,89.78
2023-01-13T08:34:38.919Z,90.00
2023-01-13T08:35:42.599Z,89.65
2023-01-13T08:36:45.607Z,88.43
2023-01-13T08:37:49.373Z,88.89
2023-01-13T08:38:52.285Z,88.63
2023-01-13T08:39:55.371Z,87.42
2023-01-13T08:40:58.319Z,87.58
2023-01-13T08:42:01.168Z,88.48
2023-01-13T08:43:04.518Z,88.37
2023-01-13T08:44:09.459Z,88.75
2023-01-13T08:45:14.775Z,88.63
2023-01-13T08:46:17.869Z,89.06
2023-01-13T08:47:21.219Z,89.66
2023-01-13T08:48:24.606Z,89.94
2023-01-13T08:49:27.485Z,90.34
2023-01-13T08:50:30.859Z,90.42
2023-01-13T08:51:34.232Z,90.94
2023-01-13T08:52:37.281Z,92.86
2023-01-13T08:53:40.264Z,92.77
2023-01-13T08:54:43.724Z,93.23
2023-01-13T08:55:47.474Z,93.82
2023-01-13T08:56:50.472Z,94.16
2023-01-13T08:58:00.512Z,93.71
2023-01-13T08:59:13.355Z,93.99
2023-01-13T09:00:17.416Z,95.41
2023-01-13T09:01:23.660Z,95.63
2023-01-13T09:02:27.522Z,95.32
2023-01-13T09:03:30.783Z,94.05
2023-01-13T09:04:33.722Z,93.20
2023-01-13T09:05:37.131Z,94.77
2023-01-13T09:06:40.345Z,94.86
2023-01-13T09:07:43.201Z,94.33
2023-01-13T09:08:47.059Z,93.19
2023-01-13T09:09:50.227Z,91.97
2023-01-13T09:10:53.345Z,92.94
2023-01-13T09:12:15.521Z,92.70
2023-01-13T09:13:20.555Z,93.02
2023-01-13T09:14:25.637Z,91.85
2023-01-13T09:15:28.730Z,90.96
2023-01-13T09:16:31.805Z,91.06
2023-01-13T09:17:35.290Z,91.78
2023-01-13T09:18:43.124Z,91.48
2023-01-13T09:19:46.022Z,90.61
2023-01-13T09:20:49.035Z,89.23
2023-01-13T09:21:52.925Z,90.14
2023-01-13T09:22:56.011Z,89.46
2023-01-13T09:23:59.049Z,87.76
2023-01-13T09:25:02.205Z,86.84
2023-01-13T09:26:05.395Z,86.26
2023-01-13T09:27:10.138Z,84.44
2023-01-13T09:28:14.121Z,83.15
2023-01-13T09:29:18.391Z,81.97
2023-01-13T09:30:21.572Z,81.92
2023-01-13T09:31:24.545Z,81.36
2023-01-13T09:32:27.565Z,80.89
2023-01-13T09:33:49.357Z,80.62
2023-01-13T09:35:01.102Z,82.15
2023-01-13T09:36:04.288Z,82.13
2023-01-13T09:37:07.762Z,83.99
2023-01-13T09:38:10.845Z,85.26
2023-01-13T09:39:14.531Z,84.92
2023-01-13T09:40:23.042Z,84.30
2023-01-13T09:41:48.163Z,84.39
2023-01-13T09:43:32.992Z,86.06
2023-01-13T09:44:55.620Z,86.45
2023-01-13T09:46:05.483Z,86.79
2023-01-13T09:47:18.323Z,88.26
2023-01-13T09:48:52.387Z,88.44
2023-01-13T09:50:04.425Z,88.92
2023-01-13T09:51:14.960Z,88.52
2023-01-13T09:52:22.176Z,88.98
2023-01-13T09:53:33.122Z,90.28
2023-01-13T09:54:43.159Z,90.20
2023-01-13T09:55:50.939Z,90.15
2023-01-13T09:56:54.238Z,89.05
2023-01-13T09:57:57.299Z,88.06
2023-01-13T09:59:00.294Z,87.83
2023-01-13T10:00:11.549Z,87.25
2023-01-13T10:01:54.211Z,87.86
2023-01-13T10:03:10.415Z,87.25
2023-01-13T10:04:15.974Z,87.04
2023-01-13T10:05:32.674Z,85.46
2023-01-13T10:06:44.720Z,85.57
2023-01-13T10:07:53.119Z,85.30
2023-01-13T10:08:58.137Z,84.52
2023-01-13T10:10:03.015Z,84.59
2023-01-13T10:11:33.666Z,84.77
2023-01-13T10:12:55.593Z,83.40
2023-01-13T10:14:01.228Z,84.54
2023-01-13T10:15:04.863Z,83.73
2023-01-13T10:16:11.036Z,82.17
2023-01-13T10:17:26.453Z,82.51
2023-01-13T10:18:37.551Z,82.83
2023-01-13T10:20:00.228Z,84.79
2023-01-13T10:21:41.917Z,84.84
2023-01-13T10:23:03.573Z,85.11
2023-01-13T10:24:22.038Z,85.24
2023-01-13T10:25:42.948Z,85.42
2023-01-13T10:26:53.825Z,86.24
2023-01-13T10:28:08.321Z,87.37
2023-01-13T10:29:31.638Z,87.25
2023-01-13T10:30:40.276Z,87.31
2023-01-13T10:31:43.302Z,87.78
2023-01-13T10:33:01.058Z,87.06
2023-01-13T10:34:06.157Z,86.44
2023-01-13T10:35:09.012Z,86.33
2023-01-13T10:36:23.341Z,87.34
2023-01-13T10:37:28.504Z,88.17
2023-01-13T10:38:45.712Z,88.22
2023-01-13T10:39:49.526Z,87.59
2023-01-13T10:40:58.535Z,87.27
2023-01-13T10:42:06.465Z,88.31
2023-01-13T10:43:10.350Z,88.53
2023-01-13T10:44:18.399Z,88.56
2023-01-13T10:45:26.066Z,87.60
2023-01-13T10:46:30.237Z,88.19
2023-01-13T10:47:36.268Z,88.03
2023-01-13T10:48:41.210Z,88.37
2023-01-13T10:49:44.161Z,89.29
2023-01-13T10:50:48.936Z,89.28
2023-01-13T10:51:51.930Z,89.06
2023-01-13T10:53:03.955Z,89.65
2023-01-13T10:54:13.159Z,88.69
2023-01-13T10:55:33.428Z,88.21
2023-01-13T10:56:36.427Z,87.84
2023-01-13T10:57:39.481Z,88.21
2023-01-13T10:58:42.544Z,88.37
2023-01-13T10:59:45.465Z,88.44
2023-01-13T11:00:58.397Z,88.72
2023-01-13T11:02:04.012Z,88.26
2023-01-13T11:03:23.980Z,88.01
2023-01-13T11:04:31.809Z,87.13
2023-01-13T11:05:34.898Z,87.17
2023-01-13T11:06:38.219Z,87.49
2023-01-13T11:07:52.908Z,87.34
2023-01-13T11:08:58.673Z,88.06
2023-01-13T11:10:15.270Z,87.26
2023-01-13T11:11:44.108Z,87.25
2023-01-13T11:13:01.807Z,87.33
2023-01-13T11:14:30.432Z,87.43
2023-01-13T11:15:42.891Z,87.03
2023-01-13T11:16:53.748Z,86.69
2023-01-13T11:18:06.505Z,88.20
2023-01-13T11:19:16.072Z,88.13
2023-01-13T11:20:31.975Z,87.97
2023-01-13T11:21:49.811Z,87.87
2023-01-13T11:22:56.199Z,88.03
2023-01-13T11:24:13.026Z,87.91
2023-01-13T11:25:23.192Z,86.66
2023-01-13T11:26:41.128Z,86.97
2023-01-13T11:27:52.649Z,86.19
2023-01-13T11:29:14.072Z,86.47
2023-01-13T11:30:17.116Z,86.96
2023-01-13T11:31:28.387Z,86.08
2023-01-13T11:32:36.627Z,86.75
2023-01-13T11:33:47.216Z,86.61
2023-01-13T11:35:02.572Z,85.98
2023-01-13T11:36:20.266Z,85.98
2023-01-13T11:37:27.980Z,85.76
2023-01-13T11:38:44.659Z,86.34
2023-01-13T11:40:06.995Z,86.51
2023-01-13T11:41:23.903Z,87.00
2023-01-13T11:42:44.652Z,87.29
2023-01-13T11:43:53.354Z,89.17
2023-01-13T11:45:05.263Z,88.91
2023-01-13T11:46:10.943Z,90.07
2023-01-13T11:47:14.790Z,89.35
2023-01-13T11:48:23.273Z,88.67
2023-01-13T11:49:30.815Z,88.30
2023-01-13T11:50:51.612Z,89.00
2023-01-13T11:52:20.784Z,88.71
2023-01-13T11:53:54.990Z,88.32
2023-01-13T11:55:28.738Z,87.08
2023-01-13T11:56:53.397Z,88.22
2023-01-13T11:57:59.295Z,86.84
2023-01-13T11:59:39.385Z,86.69
2023-01-13T12:01:02.784Z,87.35
2023-01-13T12:02:24.972Z,87.93
2023-01-13T12:03:38.668Z,87.05
2023-01-13T12:05:06.941Z,88.09
2023-01-13T12:06:30.389Z,88.73
2023-01-13T12:07:59.091Z,88.95
2023-01-13T12:09:22.544Z,87.63
2023-01-13T12:10:56.689Z,88.32
2023-01-13T12:12:40.032Z,88.07
2023-01-13T12:14:04.956Z,87.72
2023-01-13T12:15:29.710Z,87.21
2023-01-13T12:16:33.746Z,86.46
2023-01-13T12:17:58.211Z,86.24
2023-01-13T12:19:25.475Z,86.25
2023-01-13T12:20:30.956Z,84.79
2023-01-13T12:22:01.255Z,85.31
2023-01-13T12:23:11.972Z,84.91
2023-01-13T12:24:49.902Z,86.14
2023-01-13T12:26:05.864Z,85.67
2023-01-13T12:27:16.128Z,85.29
2023-01-13T12:28:41.594Z,84.34
2023-01-13T12:29:47.305Z,84.61
2023-01-13T12:30:53.728Z,85.14
2023-01-13T12:31:58.160Z,86.01
2023-01-13T12:33:16.319Z,86.04
2023-01-13T12:34:25.153Z,85.87
2023-01-13T12:35:47.411Z,85.26
2023-01-13T12:37:14.814Z,86.00
2023-01-13T12:38:37.859Z,86.32
2023-01-13T12:39:59.099Z,86.34
2023-01-13T12:41:31.006Z,87.44
2023-01-13T12:42:52.644Z,85.78
2023-01-13T12:44:15.702Z,85.76
2023-01-13T12:45:28.713Z,85.78
2023-01-13T12:46:31.644Z,85.82
2023-01-13T12:47:40.422Z,85.85
2023-01-13T12:48:59.712Z,86.54
2023-01-13T12:50:27.530Z,85.04
2023-01-13T12:51:34.240Z,85.00
2023-01-13T12:52:45.399Z,84.13
2023-01-13T12:53:48.567Z,85.07
2023-01-13T12:54:51.748Z,84.33
2023-01-13T12:55:55.272Z,84.68
2023-01-13T12:56:59.477Z,84.57
2023-01-13T12:58:08.508Z,83.59
2023-01-13T12:59:19.283Z,83.65
2023-01-13T13:00:22.427Z,83.82
2023-01-13T13:01:36.198Z,83.71
2023-01-13T13:02:41.529Z,84.76
2023-01-13T13:04:09.528Z,84.54
2023-01-13T13:05:15.772Z,84.06
2023-01-13T13:06:23.125Z,84.00
2023-01-13T13:07:41.642Z,84.86
2023-01-13T13:09:04.067Z,85.17
2023-01-13T13:10:30.561Z,85.13
2023-01-13T13:12:03.459Z,84.93
2023-01-13T13:13:22.008Z,83.99
2023-01-13T13:14:43.850Z,83.77
2023-01-13T13:15:49.492Z,84.32
2023-01-13T13:16:53.215Z,85.27
2023-01-13T13:18:28.986Z,85.12
2023-01-13T13:19:31.909Z,83.93
2023-01-13T13:21:09.222Z,83.64
2023-01-13T13:22:16.986Z,83.52
2023-01-13T13:23:43.863Z,83.39
2023-01-13T13:24:49.905Z,82.92
2023-01-13T13:26:16.777Z,83.33
2023-01-13T13:27:26.695Z,83.40
2023-01-13T13:28:42.465Z,83.49
2023-01-13T13:30:01.740Z,84.12
2023-01-13T13:31:32.663Z,83.67
2023-01-13T13:33:00.121Z,83.97
2023-01-13T13:34:35.044Z,83.58
2023-01-13T13:35:40.655Z,83.29
2023-01-13T13:36:54.408Z,84.26
2023-01-13T13:38:28.308Z,85.55
2023-01-13T13:39:50.936Z,86.04
2023-01-13T13:41:13.299Z,87.17
2023-01-13T13:42:45.486Z,86.80
2023-01-13T13:44:07.182Z,87.73
2023-01-13T13:45:41.236Z,87.55
2023-01-13T13:46:48.336Z,87.95
2023-01-13T13:47:51.822Z,90.23
2023-01-13T13:48:56.432Z,90.01
2023-01-13T13:50:13.144Z,90.71
2023-01-13T13:51:31.813Z,91.20
2023-01-13T13:52:51.693Z,90.53
2023-01-13T13:53:56.334Z,90.42
2023-01-13T13:55:20.022Z,90.95
2023-01-13T13:56:26.852Z,91.20
2023-01-13T13:57:39.458Z,91.55
2023-01-13T13:58:48.393Z,91.10
2023-01-13T13:59:56.157Z,91.28
2023-01-13T14:01:01.121Z,91.70
2023-01-13T14:02:04.423Z,91.74
2023-01-13T14:03:21.531Z,91.12
2023-01-13T14:04:30.299Z,92.07
2023-01-13T14:05:35.826Z,92.56
2023-01-13T14:06:38.853Z,93.15
2023-01-13T14:07:47.373Z,94.06
2023-01-13T14:08:51.057Z,94.46
2023-01-13T14:09:58.150Z,94.44
2023-01-13T14:11:01.604Z,94.88
2023-01-13T14:12:10.277Z,94.58
2023-01-13T14:13:26.019Z,94.10
2023-01-13T14:14:29.566Z,95.17
2023-01-13T14:15:39.144Z,95.84
2023-01-13T14:16:42.291Z,96.48
2023-01-13T14:17:45.150Z,96.83
2023-01-13T14:18:48.996Z,97.19
2023-01-13T14:20:06.003Z,97.06
2023-01-13T14:21:22.552Z,96.73
2023-01-13T14:22:25.975Z,96.78
2023-01-13T14:23:31.853Z,96.86
2023-01-13T14:24:47.086Z,97.06
2023-01-13T14:25:51.808Z,97.65
2023-01-13T14:27:09.337Z,98.33
2023-01-13T14:28:32.616Z,98.99
2023-01-13T14:29:36.153Z,98.37
2023-01-13T14:30:40.248Z,98.02
2023-01-13T14:31:44.540Z,98.39
2023-01-13T14:32:48.252Z,98.42
2023-01-13T14:33:55.109Z,98.54
2023-01-13T14:34:58.235Z,98.98
2023-01-13T14:36:22.318Z,98.93
2023-01-13T14:37:28.265Z,98.36
2023-01-13T14:38:32.134Z,99.64
2023-01-13T14:39:41.194Z,98.97
2023-01-13T14:40:46.523Z,99.13
2023-01-13T14:41:51.461Z,98.76
2023-01-13T14:44:28.962Z,98.42
2023-01-13T14:45:33.560Z,98.13
2023-01-13T14:46:44.123Z,98.78
2023-01-13T14:47:53.419Z,99.34
2023-01-13T14:49:02.554Z,99.51
2023-01-13T14:50:11.033Z,99.52
2023-01-13T14:51:23.173Z,99.47
2023-01-13T14:52:28.875Z,99.79
2023-01-13T14:53:46.980Z,100.00
2023-01-13T14:55:10.456Z,100.00
2023-01-13T14:56:38.535Z,100.00
2023-01-13T14:57:41.932Z,99.63
2023-01-13T14:58:44.936Z,100.00
2023-01-13T15:00:07.045Z,100.00
2023-01-13T15:01:44.205Z,99.91
2023-01-13T15:02:53.730Z,100.00